createdAt,value
2023-01-15T00:01:29.829Z,18.65
2023-01-15T00:05:31.833Z,17.90
2023-01-15T00:09:33.917Z,18.45
2023-01-15T00:13:35.840Z,16.98
2023-01-15T00:17:37.818Z,18.42
2023-01-15T00:21:39.869Z,16.15
2023-01-15T00:26:00.351Z,17.52
2023-01-15T00:30:02.423Z,17.63
2023-01-15T00:34:05.136Z,16.88
2023-01-15T00:38:07.126Z,15.02
2023-01-15T00:42:11.651Z,16.98
2023-01-15T00:46:13.939Z,16.33
2023-01-15T00:50:16.133Z,16.67
2023-01-15T00:54:18.164Z,15.90
2023-01-15T00:58:20.183Z,15.57
2023-01-15T01:02:22.865Z,15.25
2023-01-15T01:06:25.200Z,14.65
2023-01-15T01:10:27.898Z,14.55
2023-01-15T01:14:29.980Z,14.48
2023-01-15T01:18:31.963Z,15.38
2023-01-15T01:22:34.069Z,13.30
2023-01-15T01:26:37.222Z,13.45
2023-01-15T01:30:38.977Z,14.52
2023-01-15T01:34:41.119Z,13.63
2023-01-15T01:38:43.243Z,11.98
2023-01-15T01:42:46.706Z,13.23
2023-01-15T01:46:48.754Z,14.45
2023-01-15T01:50:51.277Z,12.38
2023-01-15T01:54:53.776Z,12.07
2023-01-15T01:58:57.068Z,12.98
2023-01-15T02:03:02.432Z,12.70
2023-01-15T02:07:04.878Z,13.50
2023-01-15T02:11:12.469Z,12.93
2023-01-15T02:15:19.110Z,14.70
2023-01-15T02:19:41.269Z,13.52
2023-01-15T02:23:58.240Z,15.88
2023-01-15T02:28:28.955Z,14.30
2023-01-15T02:32:38.234Z,14.98
2023-01-15T02:36:48.907Z,14.85
2023-01-15T02:41:02.251Z,14.27
2023-01-15T02:45:08.577Z,15.70
2023-01-15T02:49:15.257Z,16.10
2023-01-15T02:53:25.082Z,16.45
2023-01-15T02:57:32.736Z,15.82
2023-01-15T03:01:44.116Z,14.90
2023-01-15T03:05:57.905Z,14.63
2023-01-15T03:10:00.005Z,13.88
2023-01-15T03:14:09.249Z,14.48
2023-01-15T03:18:14.644Z,15.07
2023-01-15T03:22:33.393Z,13.40
2023-01-15T03:26:35.571Z,15.23
2023-01-15T03:30:37.943Z,14.02
2023-01-15T03:34:46.476Z,13.82
2023-01-15T03:38:52.678Z,13.88
2023-01-15T03:43:43.109Z,11.73
2023-01-15T03:48:18.222Z,12.40
2023-01-15T03:52:46.270Z,11.30
2023-01-15T03:56:58.571Z,11.75
2023-01-15T04:01:03.588Z,12.30
2023-01-15T04:05:07.142Z,10.68
2023-01-15T04:09:12.328Z,10.63
2023-01-15T04:13:14.373Z,10.23
2023-01-15T04:17:18.088Z,10.43
2023-01-15T04:21:20.919Z,10.30
2023-01-15T04:25:22.782Z,10.75
2023-01-15T04:29:26.221Z,9.57
2023-01-15T04:33:28.182Z,8.75
2023-01-15T04:37:30.088Z,9.27
2023-01-15T04:41:50.734Z,9.45
2023-01-15T04:45:52.674Z,8.90
2023-01-15T04:49:54.336Z,9.88
2023-01-15T04:53:56.488Z,8.40
2023-01-15T04:57:58.296Z,8.68
2023-01-15T05:02:06.064Z,8.77
2023-01-15T05:10:11.238Z,8.02
2023-01-15T05:14:13.169Z,7.78
2023-01-15T05:18:15.253Z,7.40
2023-01-15T05:22:17.372Z,8.30
2023-01-15T05:26:21.218Z,7.60
2023-01-15T05:30:22.952Z,6.78
2023-01-15T05:34:24.894Z,7.18
2023-01-15T05:38:26.786Z,6.80
2023-01-15T05:42:28.548Z,6.30
2023-01-15T05:46:31.420Z,6.25
2023-01-15T05:50:33.172Z,5.53
2023-01-15T05:54:36.109Z,6.97
2023-01-15T05:58:38.242Z,6.40
2023-01-15T06:02:39.979Z,5.80
2023-01-15T06:06:42.886Z,4.55
2023-01-15T06:10:45.344Z,5.65
2023-01-15T06:14:47.290Z,5.88
2023-01-15T06:18:49.185Z,5.22
2023-01-15T06:22:51.075Z,4.90
2023-01-15T06:26:53.109Z,4.90
2023-01-15T06:30:55.490Z,5.38
2023-01-15T06:34:57.334Z,4.70
2023-01-15T06:38:59.330Z,5.13
2023-01-15T06:43:19.613Z,4.47
2023-01-15T06:47:22.107Z,3.95
2023-01-15T06:51:24.999Z,4.28
2023-01-15T06:55:27.002Z,4.32
2023-01-15T06:59:29.253Z,4.93
2023-01-15T07:03:31.088Z,4.93
2023-01-15T07:07:34.218Z,3.90
2023-01-15T07:11:49.191Z,4.10
2023-01-15T07:15:51.232Z,5.10
2023-01-15T07:19:53.171Z,4.90
2023-01-15T07:23:58.553Z,5.15
2023-01-15T07:28:00.257Z,4.63
2023-01-15T07:32:02.394Z,4.32
2023-01-15T07:36:05.647Z,5.22
2023-01-15T07:40:08.216Z,5.18
2023-01-15T07:44:30.007Z,4.68
2023-01-15T07:48:50.347Z,5.00
2023-01-15T07:52:53.416Z,5.38
2023-01-15T07:56:56.513Z,4.85
2023-01-15T08:00:58.605Z,4.68
2023-01-15T08:05:00.615Z,4.63
2023-01-15T08:09:03.048Z,4.65
2023-01-15T08:13:23.872Z,4.30
2023-01-15T08:17:26.065Z,4.13
2023-01-15T08:21:27.804Z,5.60
2023-01-15T08:25:29.985Z,5.40
2023-01-15T08:29:32.224Z,5.32
2023-01-15T08:33:34.184Z,4.78
2023-01-15T08:37:36.452Z,5.60
2023-01-15T08:41:38.394Z,4.55
2023-01-15T08:45:40.343Z,4.30
2023-01-15T08:49:42.525Z,4.50
2023-01-15T08:53:44.486Z,6.28
2023-01-15T08:57:46.461Z,4.97
2023-01-15T09:01:48.796Z,5.18
2023-01-15T09:05:50.845Z,5.85
2023-01-15T09:09:52.840Z,6.13
2023-01-15T09:13:54.960Z,4.97
2023-01-15T09:17:57.392Z,5.78
2023-01-15T09:21:59.300Z,6.97
2023-01-15T09:26:06.041Z,5.20
2023-01-15T09:30:14.281Z,5.07
2023-01-15T09:34:16.199Z,6.88
2023-01-15T09:38:21.189Z,6.00
2023-01-15T09:42:48.127Z,5.65
2023-01-15T09:47:14.714Z,6.15
2023-01-15T09:51:36.263Z,6.50
2023-01-15T09:55:50.503Z,5.10
2023-01-15T09:59:54.808Z,5.43
2023-01-15T10:04:02.335Z,4.95
2023-01-15T10:08:09.880Z,4.78
2023-01-15T10:12:35.500Z,5.65
2023-01-15T10:16:37.725Z,7.30
2023-01-15T10:20:45.867Z,6.18
2023-01-15T10:25:00.012Z,7.90
2023-01-15T10:29:11.051Z,8.15
2023-01-15T10:33:38.877Z,7.15
2023-01-15T10:37:59.637Z,7.38
2023-01-15T10:42:21.231Z,6.97
2023-01-15T10:46:27.616Z,8.13
2023-01-15T10:50:29.806Z,7.78
2023-01-15T10:54:40.204Z,7.05
2023-01-15T10:59:05.226Z,8.93
2023-01-15T11:03:16.494Z,7.15
2023-01-15T11:07:18.756Z,7.35
2023-01-15T11:11:45.426Z,8.20
2023-01-15T11:16:08.566Z,7.93
2023-01-15T11:20:36.952Z,9.13
2023-01-15T11:24:47.855Z,9.10
2023-01-15T11:28:50.240Z,8.65
2023-01-15T11:32:57.907Z,9.75
2023-01-15T11:37:05.395Z,11.00
2023-01-15T11:41:07.454Z,9.90
2023-01-15T11:45:35.830Z,9.05
2023-01-15T11:49:56.283Z,13.85
2023-01-15T11:54:04.296Z,10.23
2023-01-15T11:58:09.727Z,10.27
2023-01-15T12:02:24.007Z,11.95
2023-01-15T12:06:26.983Z,11.02
2023-01-15T12:10:55.020Z,11.52
2023-01-15T12:15:15.619Z,11.27
2023-01-15T12:19:43.459Z,12.40
2023-01-15T12:23:57.422Z,12.75
2023-01-15T12:28:09.934Z,12.40
2023-01-15T12:32:18.877Z,12.60
2023-01-15T12:36:43.131Z,12.68
2023-01-15T12:40:53.918Z,12.52
2023-01-15T12:45:01.703Z,13.40
2023-01-15T12:49:11.986Z,13.30
2023-01-15T12:53:26.203Z,13.35
2023-01-15T12:57:35.558Z,13.07
2023-01-15T13:01:52.247Z,14.30
2023-01-15T13:06:01.413Z,13.20
2023-01-15T13:10:15.848Z,14.38
2023-01-15T13:14:21.741Z,14.55
2023-01-15T13:18:32.602Z,13.43
2023-01-15T13:23:04.697Z,14.43
2023-01-15T13:27:22.162Z,14.48
2023-01-15T13:31:44.225Z,14.60
2023-01-15T13:35:53.999Z,15.43
2023-01-15T13:40:01.592Z,13.40
2023-01-15T13:44:03.985Z,12.65
2023-01-15T13:48:33.727Z,13.20
2023-01-15T13:52:37.187Z,12.40
2023-01-15T13:56:39.977Z,14.25
2023-01-15T14:00:41.964Z,11.52
2023-01-15T14:04:43.919Z,12.07
2023-01-15T14:08:46.230Z,14.32
2023-01-15T14:13:29.904Z,12.32
2023-01-15T14:18:02.696Z,12.70
2023-01-15T14:22:33.725Z,13.00
2023-01-15T14:26:54.822Z,12.95
2023-01-15T14:31:14.858Z,14.40
2023-01-15T14:35:21.630Z,15.85
2023-01-15T14:39:46.551Z,13.63
2023-01-15T14:43:49.704Z,14.52
2023-01-15T14:48:00.487Z,15.32
2023-01-15T14:52:02.898Z,14.02
2023-01-15T14:56:16.337Z,14.48
2023-01-15T15:00:20.237Z,13.35
2023-01-15T15:04:43.777Z,14.77
2023-01-15T15:08:46.533Z,14.68
2023-01-15T15:12:52.158Z,16.27
2023-01-15T15:16:57.379Z,15.15
2023-01-15T15:20:59.524Z,15.15
2023-01-15T15:25:10.662Z,13.95
2023-01-15T15:29:15.142Z,14.13
2023-01-15T15:33:25.938Z,14.52
2023-01-15T15:37:29.045Z,12.35
2023-01-15T15:41:53.635Z,14.00
2023-01-15T15:46:15.688Z,15.98
2023-01-15T15:50:23.207Z,20.17
2023-01-15T15:54:29.763Z,15.15
2023-01-15T15:58:35.957Z,11.63
2023-01-15T16:02:40.450Z,13.48
2023-01-15T16:06:42.636Z,13.20
2023-01-15T16:10:47.853Z,13.60
2023-01-15T16:14:51.610Z,13.95
2023-01-15T16:18:57.004Z,13.38
2023-01-15T16:23:01.205Z,13.40
2023-01-15T16:27:11.882Z,13.48
2023-01-15T16:31:17.516Z,12.88
2023-01-15T16:35:22.595Z,12.77
2023-01-15T16:39:43.770Z,10.63
2023-01-15T16:43:59.804Z,9.45
2023-01-15T16:48:07.550Z,8.43
2023-01-15T16:52:44.482Z,8.00
2023-01-15T16:56:53.094Z,8.45
2023-01-15T17:00:56.692Z,10.00
2023-01-15T17:04:58.800Z,8.88
2023-01-15T17:09:01.011Z,11.35
2023-01-15T17:13:02.749Z,10.13
2023-01-15T17:17:17.766Z,10.43
2023-01-15T17:21:28.786Z,11.55
2023-01-15T17:25:35.229Z,12.32
2023-01-15T17:29:37.157Z,11.50
2023-01-15T17:33:39.296Z,11.10
2023-01-15T17:37:52.837Z,9.27
2023-01-15T17:41:54.916Z,14.10
2023-01-15T17:45:57.472Z,11.40
2023-01-15T17:49:59.423Z,11.75
2023-01-15T17:54:01.393Z,12.68
2023-01-15T17:58:22.524Z,12.73
2023-01-15T18:02:42.948Z,12.68
2023-01-15T18:06:56.370Z,12.00
2023-01-15T18:10:58.409Z,14.90
2023-01-15T18:15:00.780Z,14.80
2023-01-15T18:19:03.051Z,15.43
2023-01-15T18:23:05.255Z,14.82
2023-01-15T18:27:07.208Z,15.77
2023-01-15T18:31:11.462Z,15.43
2023-01-15T18:35:14.854Z,16.70
2023-01-15T18:39:17.016Z,16.83
2023-01-15T18:43:37.572Z,17.08
2023-01-15T18:47:41.069Z,18.33
2023-01-15T18:51:42.979Z,38.65
2023-01-15T18:55:45.078Z,24.13
2023-01-15T18:59:47.962Z,21.48
2023-01-15T19:03:49.633Z,18.70
2023-01-15T19:07:51.828Z,24.63
2023-01-15T19:11:54.027Z,21.95
2023-01-15T19:16:14.668Z,21.02
2023-01-15T19:20:19.340Z,23.17
2023-01-15T19:24:21.323Z,29.58
2023-01-15T19:28:23.489Z,43.08
2023-01-15T19:32:25.581Z,43.05
2023-01-15T19:36:27.437Z,18.73
2023-01-15T19:40:31.492Z,16.23
2023-01-15T19:44:52.181Z,36.47
2023-01-15T19:49:12.529Z,20.65
2023-01-15T19:53:14.828Z,16.10
2023-01-15T19:57:21.395Z,15.65
2023-01-15T20:01:23.555Z,12.15
2023-01-15T20:05:27.868Z,13.63
2023-01-15T20:09:29.738Z,16.52
2023-01-15T20:13:51.363Z,29.90
2023-01-15T20:17:53.716Z,18.58
2023-01-15T20:21:55.431Z,12.40
2023-01-15T20:26:04.798Z,11.00
2023-01-15T20:30:10.532Z,10.85
2023-01-15T20:34:12.580Z,19.83
2023-01-15T20:38:14.281Z,12.55
2023-01-15T20:42:34.908Z,12.90
2023-01-15T20:46:36.938Z,16.35
2023-01-15T20:50:41.456Z,18.20
2023-01-15T20:54:43.407Z,17.30
2023-01-15T20:58:45.973Z,18.27
2023-01-15T21:02:48.278Z,17.30
2023-01-15T21:06:50.379Z,22.52
2023-01-15T21:10:54.123Z,21.77
2023-01-15T21:14:56.113Z,22.98
2023-01-15T21:19:01.003Z,19.42
2023-01-15T21:23:03.054Z,20.08
2023-01-15T21:27:05.645Z,18.45
2023-01-15T21:31:12.256Z,22.00
2023-01-15T21:35:14.382Z,15.70
2023-01-15T21:39:17.230Z,15.52
2023-01-15T21:43:37.753Z,16.83
2023-01-15T21:47:41.472Z,26.98
2023-01-15T21:51:43.399Z,15.55
2023-01-15T21:55:49.289Z,12.27
2023-01-15T21:59:51.349Z,11.18
2023-01-15T22:03:53.336Z,9.98
2023-01-15T22:07:56.136Z,16.20
2023-01-15T22:11:58.205Z,16.38
2023-01-15T22:16:00.351Z,10.57
2023-01-15T22:20:02.513Z,12.05
2023-01-15T22:24:05.172Z,10.27
2023-01-15T22:28:07.245Z,9.32
2023-01-15T22:32:11.599Z,10.20
2023-01-15T22:36:14.725Z,8.50
2023-01-15T22:40:16.727Z,8.35
2023-01-15T22:44:18.740Z,8.55
2023-01-15T22:48:20.401Z,10.18
2023-01-15T22:52:25.192Z,9.07
2023-01-15T22:56:27.496Z,8.68
2023-01-15T23:00:29.542Z,7.80
2023-01-15T23:04:31.838Z,6.93
2023-01-15T23:08:35.439Z,8.13
2023-01-15T23:12:39.282Z,7.22
2023-01-15T23:16:41.709Z,7.38
2023-01-15T23:20:43.591Z,8.73
2023-01-15T23:24:45.591Z,8.55
2023-01-15T23:28:47.565Z,6.78
2023-01-15T23:32:49.662Z,7.15
2023-01-15T23:36:51.876Z,7.15
2023-01-15T23:40:54.151Z,7.15
2023-01-15T23:45:14.656Z,6.75
2023-01-15T23:49:18.711Z,6.60
2023-01-15T23:53:20.653Z,7.40
2023-01-15T23:57:22.583Z,7.63
